sensor_id;sensor_type;location;lat;lon;timestamp;pressure;altitude;pressure_sealevel;temperature;humidity
64739;BME280;51175;51.186;0.276;2023-04-19T00:00:27;102149.81;;;13.57;63.09
64739;BME280;51175;51.186;0.276;2023-04-19T00:00:57;102147.97;;;13.57;63.34
64739;BME280;51175;51.186;0.276;2023-04-19T00:01:28;102151.41;;;13.58;63.32
64739;BME280;51175;51.186;0.276;2023-04-19T00:01:58;102149.00;;;13.56;63.27
64739;BME280;51175;51.186;0.276;2023-04-19T00:02:29;102149.00;;;13.56;63.19
64739;BME280;51175;51.186;0.276;2023-04-19T00:03:00;102160.44;;;13.57;63.25
64739;BME280;51175;51.186;0.276;2023-04-19T00:03:31;102155.13;;;13.57;63.24
64739;BME280;51175;51.186;0.276;2023-04-19T00:04:01;102151.66;;;13.56;63.25
64739;BME280;51175;51.186;0.276;2023-04-19T00:04:32;102148.22;;;13.56;63.16
64739;BME280;51175;51.186;0.276;2023-04-19T00:05:03;102151.66;;;13.56;63.19
64739;BME280;51175;51.186;0.276;2023-04-19T00:05:33;102146.34;;;13.56;63.13
64739;BME280;51175;51.186;0.276;2023-04-19T00:06:04;102149.00;;;13.56;63.17
64739;BME280;51175;51.186;0.276;2023-04-19T00:06:37;102150.88;;;13.56;63.20
64739;BME280;51175;51.186;0.276;2023-04-19T00:07:11;102151.66;;;13.56;63.14
64739;BME280;51175;51.186;0.276;2023-04-19T00:07:42;102154.31;;;13.56;63.11
64739;BME280;51175;51.186;0.276;2023-04-19T00:08:12;102151.66;;;13.56;63.21
64739;BME280;51175;51.186;0.276;2023-04-19T00:08:43;102153.53;;;13.56;63.00
64739;BME280;51175;51.186;0.276;2023-04-19T00:09:13;102155.38;;;13.55;63.06
64739;BME280;51175;51.186;0.276;2023-04-19T00:09:44;102151.91;;;13.55;63.14
64739;BME280;51175;51.186;0.276;2023-04-19T00:10:14;102158.03;;;13.55;63.32
64739;BME280;51175;51.186;0.276;2023-04-19T00:10:45;102149.25;;;13.55;63.35
64739;BME280;51175;51.186;0.276;2023-04-19T00:11:15;102148.47;;;13.54;63.51
64739;BME280;51175;51.186;0.276;2023-04-19T00:11:46;102148.47;;;13.54;63.35
64739;BME280;51175;51.186;0.276;2023-04-19T00:12:16;102148.47;;;13.54;63.13
64739;BME280;51175;51.186;0.276;2023-04-19T00:12:46;102150.28;;;13.53;63.20
64739;BME280;51175;51.186;0.276;2023-04-19T00:13:17;102147.63;;;13.53;63.14
64739;BME280;51175;51.186;0.276;2023-04-19T00:13:47;102146.81;;;13.53;63.34
64739;BME280;51175;51.186;0.276;2023-04-19T00:14:18;102163.56;;;13.53;63.17
64739;BME280;51175;51.186;0.276;2023-04-19T00:14:48;102146.81;;;13.53;63.32
64739;BME280;51175;51.186;0.276;2023-04-19T00:15:19;102151.34;;;13.52;63.15
64739;BME280;51175;51.186;0.276;2023-04-19T00:15:49;102147.88;;;13.52;63.25
64739;BME280;51175;51.186;0.276;2023-04-19T00:16:20;102139.91;;;13.52;63.28
64739;BME280;51175;51.186;0.276;2023-04-19T00:16:50;102147.88;;;13.52;63.43
64739;BME280;51175;51.186;0.276;2023-04-19T00:17:20;102146.03;;;13.52;63.24
64739;BME280;51175;51.186;0.276;2023-04-19T00:17:51;102142.56;;;13.52;63.35
64739;BME280;51175;51.186;0.276;2023-04-19T00:18:22;102147.88;;;13.52;63.52
64739;BME280;51175;51.186;0.276;2023-04-19T00:18:52;102138.31;;;13.51;63.28
64739;BME280;51175;51.186;0.276;2023-04-19T00:19:23;102145.22;;;13.52;63.53
64739;BME280;51175;51.186;0.276;2023-04-19T00:19:53;102151.59;;;13.51;63.55
64739;BME280;51175;51.186;0.276;2023-04-19T00:20:23;102141.75;;;13.51;63.45
64739;BME280;51175;51.186;0.276;2023-04-19T00:20:54;102147.06;;;13.51;63.39
64739;BME280;51175;51.186;0.276;2023-04-19T00:21:25;102143.63;;;13.51;63.54
64739;BME280;51175;51.186;0.276;2023-04-19T00:21:56;102148.94;;;13.51;63.48
64739;BME280;51175;51.186;0.276;2023-04-19T00:22:26;102148.13;;;13.50;63.44
64739;BME280;51175;51.186;0.276;2023-04-19T00:22:57;102140.97;;;13.51;63.39
64739;BME280;51175;51.186;0.276;2023-04-19T00:23:28;102149.72;;;13.51;63.91
64739;BME280;51175;51.186;0.276;2023-04-19T00:24:00;102150.53;;;13.52;63.49
64739;BME280;51175;51.186;0.276;2023-04-19T00:24:31;102143.63;;;13.51;63.41
64739;BME280;51175;51.186;0.276;2023-04-19T00:25:01;102143.63;;;13.51;63.45
64739;BME280;51175;51.186;0.276;2023-04-19T00:25:32;102141.97;;;13.50;63.55
64739;BME280;51175;51.186;0.276;2023-04-19T00:26:03;102139.31;;;13.50;63.39
64739;BME280;51175;51.186;0.276;2023-04-19T00:26:34;102140.16;;;13.50;63.50
64739;BME280;51175;51.186;0.276;2023-04-19T00:27:04;102143.03;;;13.49;63.52
64739;BME280;51175;51.186;0.276;2023-04-19T00:27:34;102139.31;;;13.50;63.29
64739;BME280;51175;51.186;0.276;2023-04-19T00:28:05;102146.28;;;13.51;63.54
64739;BME280;51175;51.186;0.276;2023-04-19T00:28:35;102143.63;;;13.51;63.46
64739;BME280;51175;51.186;0.276;2023-04-19T00:29:06;102145.47;;;13.50;63.65
64739;BME280;51175;51.186;0.276;2023-04-19T00:29:36;102140.97;;;13.51;63.55
64739;BME280;51175;51.186;0.276;2023-04-19T00:30:07;102140.16;;;13.50;63.57
64739;BME280;51175;51.186;0.276;2023-04-19T00:30:37;102141.97;;;13.50;63.61
64739;BME280;51175;51.186;0.276;2023-04-19T00:31:08;102138.31;;;13.51;63.42
64739;BME280;51175;51.186;0.276;2023-04-19T00:31:38;102138.31;;;13.51;63.55
64739;BME280;51175;51.186;0.276;2023-04-19T00:32:09;102135.88;;;13.49;63.52
64739;BME280;51175;51.186;0.276;2023-04-19T00:32:40;102140.16;;;13.50;63.45
64739;BME280;51175;51.186;0.276;2023-04-19T00:33:10;102136.66;;;13.50;63.60
64739;BME280;51175;51.186;0.276;2023-04-19T00:33:41;102136.66;;;13.50;63.60
64739;BME280;51175;51.186;0.276;2023-04-19T00:34:12;102134.00;;;13.50;63.46
64739;BME280;51175;51.186;0.276;2023-04-19T00:34:42;102135.66;;;13.51;63.52
64739;BME280;51175;51.186;0.276;2023-04-19T00:35:13;102132.41;;;13.49;63.56
64739;BME280;51175;51.186;0.276;2023-04-19T00:35:43;102132.19;;;13.50;63.70
64739;BME280;51175;51.186;0.276;2023-04-19T00:36:14;102135.88;;;13.49;63.50
64739;BME280;51175;51.186;0.276;2023-04-19T00:36:44;102132.41;;;13.49;63.57
64739;BME280;51175;51.186;0.276;2023-04-19T00:37:15;102128.94;;;13.48;63.72
64739;BME280;51175;51.186;0.276;2023-04-19T00:37:45;102132.41;;;13.49;63.45
64739;BME280;51175;51.186;0.276;2023-04-19T00:38:15;102139.53;;;13.48;63.49
64739;BME280;51175;51.186;0.276;2023-04-19T00:38:46;102133.47;;;13.48;63.69
64739;BME280;51175;51.186;0.276;2023-04-19T00:39:16;102140.38;;;13.49;63.36
64739;BME280;51175;51.186;0.276;2023-04-19T00:39:47;102136.91;;;13.48;63.65
64739;BME280;51175;51.186;0.276;2023-04-19T00:40:17;102137.72;;;13.49;63.57
64739;BME280;51175;51.186;0.276;2023-04-19T00:40:48;102142.19;;;13.48;63.52
64739;BME280;51175;51.186;0.276;2023-04-19T00:41:18;102136.91;;;13.48;63.37
64739;BME280;51175;51.186;0.276;2023-04-19T00:41:48;102136.91;;;13.48;63.57
64739;BME280;51175;51.186;0.276;2023-04-19T00:42:19;102136.91;;;13.48;63.68
64739;BME280;51175;51.186;0.276;2023-04-19T00:42:49;102129.16;;;13.47;63.65
64739;BME280;51175;51.186;0.276;2023-04-19T00:43:20;102129.97;;;13.47;63.58
64739;BME280;51175;51.186;0.276;2023-04-19T00:43:50;102130.81;;;13.48;63.50
64739;BME280;51175;51.186;0.276;2023-04-19T00:44:20;102129.16;;;13.47;63.58
64739;BME280;51175;51.186;0.276;2023-04-19T00:44:51;102130.81;;;13.48;63.66
64739;BME280;51175;51.186;0.276;2023-04-19T00:45:21;102131.59;;;13.48;63.69
64739;BME280;51175;51.186;0.276;2023-04-19T00:45:55;102128.16;;;13.48;63.43
64739;BME280;51175;51.186;0.276;2023-04-19T00:46:26;102128.94;;;13.48;63.48
64739;BME280;51175;51.186;0.276;2023-04-19T00:46:56;102128.94;;;13.48;63.73
64739;BME280;51175;51.186;0.276;2023-04-19T00:47:27;102129.16;;;13.47;63.52
64739;BME280;51175;51.186;0.276;2023-04-19T00:47:58;102122.03;;;13.47;63.91
64739;BME280;51175;51.186;0.276;2023-04-19T00:48:29;102128.94;;;13.48;63.52
64739;BME280;51175;51.186;0.276;2023-04-19T00:49:00;102129.97;;;13.47;63.85
64739;BME280;51175;51.186;0.276;2023-04-19T00:49:30;102120.19;;;13.48;63.33
64739;BME280;51175;51.186;0.276;2023-04-19T00:50:02;102131.81;;;13.47;63.54
64739;BME280;51175;51.186;0.276;2023-04-19T00:50:33;102124.69;;;13.47;63.75
64739;BME280;51175;51.186;0.276;2023-04-19T00:51:05;102123.06;;;13.46;63.71
64739;BME280;51175;51.186;0.276;2023-04-19T00:51:36;102129.97;;;13.47;63.74
64739;BME280;51175;51.186;0.276;2023-04-19T00:52:07;102125.50;;;13.48;63.76
64739;BME280;51175;51.186;0.276;2023-04-19T00:52:38;102126.50;;;13.47;63.55
64739;BME280;51175;51.186;0.276;2023-04-19T00:53:09;102126.50;;;13.47;63.71
64739;BME280;51175;51.186;0.276;2023-04-19T00:53:40;102121.22;;;13.47;63.51
64739;BME280;51175;51.186;0.276;2023-04-19T00:54:10;102125.72;;;13.46;63.70
64739;BME280;51175;51.186;0.276;2023-04-19T00:54:42;102127.34;;;13.47;63.67
64739;BME280;51175;51.186;0.276;2023-04-19T00:55:12;102126.50;;;13.47;63.72
64739;BME280;51175;51.186;0.276;2023-04-19T00:55:43;102114.31;;;13.46;63.51
64739;BME280;51175;51.186;0.276;2023-04-19T00:56:14;102123.84;;;13.47;63.65
64739;BME280;51175;51.186;0.276;2023-04-19T00:56:46;102123.06;;;13.46;63.55
64739;BME280;51175;51.186;0.276;2023-04-19T00:57:17;102123.84;;;13.47;63.64
64739;BME280;51175;51.186;0.276;2023-04-19T00:57:47;102126.50;;;13.47;63.68
64739;BME280;51175;51.186;0.276;2023-04-19T00:58:18;102117.78;;;13.46;63.73
64739;BME280;51175;51.186;0.276;2023-04-19T00:58:48;102113.25;;;13.47;63.68
64739;BME280;51175;51.186;0.276;2023-04-19T00:59:19;102114.31;;;13.46;63.85
64739;BME280;51175;51.186;0.276;2023-04-19T00:59:50;102112.47;;;13.46;63.68
64739;BME280;51175;51.186;0.276;2023-04-19T01:00:20;102117.78;;;13.46;63.38
64739;BME280;51175;51.186;0.276;2023-04-19T01:00:51;102116.94;;;13.46;63.53
64739;BME280;51175;51.186;0.276;2023-04-19T01:01:21;102118.00;;;13.45;63.49
64739;BME280;51175;51.186;0.276;2023-04-19T01:01:52;102119.59;;;13.46;63.72
64739;BME280;51175;51.186;0.276;2023-04-19T01:02:23;102116.13;;;13.45;63.69
64739;BME280;51175;51.186;0.276;2023-04-19T01:02:53;102118.00;;;13.45;63.74
64739;BME280;51175;51.186;0.276;2023-04-19T01:03:24;102112.69;;;13.45;63.64
64739;BME280;51175;51.186;0.276;2023-04-19T01:03:56;102109.22;;;13.44;63.54
64739;BME280;51175;51.186;0.276;2023-04-19T01:04:27;102113.47;;;13.45;63.47
64739;BME280;51175;51.186;0.276;2023-04-19T01:04:57;102114.53;;;13.44;63.55
64739;BME280;51175;51.186;0.276;2023-04-19T01:05:28;102110.03;;;13.45;63.42
64739;BME280;51175;51.186;0.276;2023-04-19T01:05:59;102110.03;;;13.45;63.67
64739;BME280;51175;51.186;0.276;2023-04-19T01:06:29;102108.41;;;13.44;63.53
64739;BME280;51175;51.186;0.276;2023-04-19T01:07:01;102107.63;;;13.43;63.51
64739;BME280;51175;51.186;0.276;2023-04-19T01:07:34;102103.09;;;13.44;63.58
64739;BME280;51175;51.186;0.276;2023-04-19T01:08:04;102109.22;;;13.44;63.59
64739;BME280;51175;51.186;0.276;2023-04-19T01:08:35;102112.94;;;13.43;63.50
64739;BME280;51175;51.186;0.276;2023-04-19T01:09:05;102105.75;;;13.44;63.66
64739;BME280;51175;51.186;0.276;2023-04-19T01:09:39;102107.63;;;13.43;63.51
64739;BME280;51175;51.186;0.276;2023-04-19T01:10:10;102104.16;;;13.43;63.66
64739;BME280;51175;51.186;0.276;2023-04-19T01:10:40;102110.53;;;13.41;63.58
64739;BME280;51175;51.186;0.276;2023-04-19T01:11:11;102103.34;;;13.42;63.76
64739;BME280;51175;51.186;0.276;2023-04-19T01:11:41;102106.81;;;13.43;63.70
64739;BME280;51175;51.186;0.276;2023-04-19T01:12:12;102102.56;;;13.41;63.72
64739;BME280;51175;51.186;0.276;2023-04-19T01:12:42;102110.53;;;13.41;63.84
64739;BME280;51175;51.186;0.276;2023-04-19T01:13:13;102106.00;;;13.42;63.64
64739;BME280;51175;51.186;0.276;2023-04-19T01:13:43;102106.00;;;13.42;63.89
64739;BME280;51175;51.186;0.276;2023-04-19T01:14:13;102110.53;;;13.41;63.52
64739;BME280;51175;51.186;0.276;2023-04-19T01:14:44;102109.72;;;13.41;63.51
64739;BME280;51175;51.186;0.276;2023-04-19T01:15:14;102112.38;;;13.41;63.68
64739;BME280;51175;51.186;0.276;2023-04-19T01:15:45;102117.66;;;13.41;63.64
64739;BME280;51175;51.186;0.276;2023-04-19T01:16:15;102109.72;;;13.41;63.70
64739;BME280;51175;51.186;0.276;2023-04-19T01:16:46;102115.00;;;13.41;63.62
64739;BME280;51175;51.186;0.276;2023-04-19T01:17:18;102107.88;;;13.41;63.51
64739;BME280;51175;51.186;0.276;2023-04-19T01:17:48;102111.31;;;13.42;63.74
64739;BME280;51175;51.186;0.276;2023-04-19T01:18:18;102110.53;;;13.41;63.69
64739;BME280;51175;51.186;0.276;2023-04-19T01:18:49;102112.38;;;13.41;63.67
64739;BME280;51175;51.186;0.276;2023-04-19T01:19:20;102102.56;;;13.41;63.57
64739;BME280;51175;51.186;0.276;2023-04-19T01:19:58;102113.19;;;13.41;63.61
64739;BME280;51175;51.186;0.276;2023-04-19T01:20:28;102106.25;;;13.40;63.65
64739;BME280;51175;51.186;0.276;2023-04-19T01:20:59;102109.72;;;13.41;63.58
64739;BME280;51175;51.186;0.276;2023-04-19T01:21:29;102106.25;;;13.40;63.52
64739;BME280;51175;51.186;0.276;2023-04-19T01:22:01;102107.28;;;13.39;63.73
64739;BME280;51175;51.186;0.276;2023-04-19T01:22:34;102105.47;;;13.40;63.54
64739;BME280;51175;51.186;0.276;2023-04-19T01:23:06;102103.59;;;13.40;63.71
64739;BME280;51175;51.186;0.276;2023-04-19T01:23:40;102105.47;;;13.40;63.54
64739;BME280;51175;51.186;0.276;2023-04-19T01:24:11;102106.25;;;13.40;63.52
64739;BME280;51175;51.186;0.276;2023-04-19T01:24:41;102108.09;;;13.40;63.61
64739;BME280;51175;51.186;0.276;2023-04-19T01:25:11;102108.09;;;13.40;63.67
64739;BME280;51175;51.186;0.276;2023-04-19T01:25:42;102102.81;;;13.40;63.58
64739;BME280;51175;51.186;0.276;2023-04-19T01:26:12;102099.34;;;13.39;63.65
64739;BME280;51175;51.186;0.276;2023-04-19T01:26:43;102105.47;;;13.40;63.71
64739;BME280;51175;51.186;0.276;2023-04-19T01:27:13;102104.63;;;13.39;63.59
64739;BME280;51175;51.186;0.276;2023-04-19T01:27:45;102101.97;;;13.39;63.76
64739;BME280;51175;51.186;0.276;2023-04-19T01:28:16;102098.75;;;13.37;63.59
64739;BME280;51175;51.186;0.276;2023-04-19T01:28:46;102108.34;;;13.38;63.75
64739;BME280;51175;51.186;0.276;2023-04-19T01:29:16;102105.69;;;13.38;63.64
64739;BME280;51175;51.186;0.276;2023-04-19T01:29:47;102107.53;;;13.38;63.81
64739;BME280;51175;51.186;0.276;2023-04-19T01:30:18;102103.03;;;13.38;63.73
64739;BME280;51175;51.186;0.276;2023-04-19T01:30:48;102104.06;;;13.37;63.89
64739;BME280;51175;51.186;0.276;2023-04-19T01:31:20;102098.75;;;13.37;63.93
64739;BME280;51175;51.186;0.276;2023-04-19T01:31:50;102097.16;;;13.36;63.71
64739;BME280;51175;51.186;0.276;2023-04-19T01:32:22;102100.63;;;13.37;63.92
64739;BME280;51175;51.186;0.276;2023-04-19T01:32:55;102102.47;;;13.36;63.86
64739;BME280;51175;51.186;0.276;2023-04-19T01:33:25;102099.81;;;13.36;63.86
64739;BME280;51175;51.186;0.276;2023-04-19T01:33:56;102097.97;;;13.37;63.89
64739;BME280;51175;51.186;0.276;2023-04-19T01:34:26;102097.16;;;13.36;63.80
64739;BME280;51175;51.186;0.276;2023-04-19T01:34:56;102099.81;;;13.36;63.59
64739;BME280;51175;51.186;0.276;2023-04-19T01:35:27;102102.47;;;13.36;63.67
64739;BME280;51175;51.186;0.276;2023-04-19T01:35:57;102095.56;;;13.35;63.91
64739;BME280;51175;51.186;0.276;2023-04-19T01:36:27;102095.56;;;13.35;63.83
64739;BME280;51175;51.186;0.276;2023-04-19T01:36:58;102094.50;;;13.36;63.68
64739;BME280;51175;51.186;0.276;2023-04-19T01:37:28;102094.50;;;13.36;63.59
64739;BME280;51175;51.186;0.276;2023-04-19T01:37:59;102095.56;;;13.35;63.71
64739;BME280;51175;51.186;0.276;2023-04-19T01:38:30;102092.91;;;13.35;63.71
64739;BME280;51175;51.186;0.276;2023-04-19T01:39:00;102095.56;;;13.35;63.69
64739;BME280;51175;51.186;0.276;2023-04-19T01:39:30;102095.31;;;13.37;63.62
64739;BME280;51175;51.186;0.276;2023-04-19T01:40:05;102098.22;;;13.35;63.91
64739;BME280;51175;51.186;0.276;2023-04-19T01:40:36;102099.81;;;13.36;63.73
64739;BME280;51175;51.186;0.276;2023-04-19T01:41:06;102098.22;;;13.35;63.94
64739;BME280;51175;51.186;0.276;2023-04-19T01:41:37;102096.34;;;13.36;63.89
64739;BME280;51175;51.186;0.276;2023-04-19T01:42:07;102097.97;;;13.37;63.89
64739;BME280;51175;51.186;0.276;2023-04-19T01:42:37;102097.16;;;13.36;63.69
64739;BME280;51175;51.186;0.276;2023-04-19T01:43:11;102097.16;;;13.36;63.67
64739;BME280;51175;51.186;0.276;2023-04-19T01:43:42;102094.50;;;13.36;63.81
64739;BME280;51175;51.186;0.276;2023-04-19T01:44:13;102099.00;;;13.36;63.70
64739;BME280;51175;51.186;0.276;2023-04-19T01:44:43;102096.34;;;13.36;63.76
64739;BME280;51175;51.186;0.276;2023-04-19T01:45:13;102092.91;;;13.35;63.77
64739;BME280;51175;51.186;0.276;2023-04-19T01:45:44;102093.94;;;13.34;63.80
64739;BME280;51175;51.186;0.276;2023-04-19T01:46:15;102091.28;;;13.34;63.81
64739;BME280;51175;51.186;0.276;2023-04-19T01:46:45;102088.63;;;13.34;63.84
64739;BME280;51175;51.186;0.276;2023-04-19T01:47:15;102085.97;;;13.34;63.78
64739;BME280;51175;51.186;0.276;2023-04-19T01:47:46;102085.19;;;13.34;63.91
64739;BME280;51175;51.186;0.276;2023-04-19T01:48:16;102091.28;;;13.34;63.88
64739;BME280;51175;51.186;0.276;2023-04-19T01:48:46;102087.84;;;13.34;63.80
64739;BME280;51175;51.186;0.276;2023-04-19T01:49:17;102093.16;;;13.34;63.84
64739;BME280;51175;51.186;0.276;2023-04-19T01:49:47;102087.84;;;13.34;64.13
64739;BME280;51175;51.186;0.276;2023-04-19T01:50:18;102089.66;;;13.33;63.83
64739;BME280;51175;51.186;0.276;2023-04-19T01:50:48;102087.84;;;13.34;63.97
64739;BME280;51175;51.186;0.276;2023-04-19T01:51:18;102086.22;;;13.33;63.64
64739;BME280;51175;51.186;0.276;2023-04-19T01:51:50;102087.03;;;13.33;63.62
64739;BME280;51175;51.186;0.276;2023-04-19T01:52:21;102085.97;;;13.34;63.99
64739;BME280;51175;51.186;0.276;2023-04-19T01:52:51;102085.19;;;13.34;63.83
64739;BME280;51175;51.186;0.276;2023-04-19T01:53:21;102077.22;;;13.34;63.77
64739;BME280;51175;51.186;0.276;2023-04-19T01:53:52;102089.66;;;13.33;63.72
64739;BME280;51175;51.186;0.276;2023-04-19T01:54:23;102087.84;;;13.34;63.69
64739;BME280;51175;51.186;0.276;2023-04-19T01:54:54;102087.84;;;13.34;63.77
64739;BME280;51175;51.186;0.276;2023-04-19T01:55:24;102083.56;;;13.33;63.82
64739;BME280;51175;51.186;0.276;2023-04-19T01:55:55;102080.91;;;13.33;63.72
64739;BME280;51175;51.186;0.276;2023-04-19T01:56:25;102082.75;;;13.32;63.88
64739;BME280;51175;51.186;0.276;2023-04-19T01:56:56;102081.94;;;13.32;63.74
64739;BME280;51175;51.186;0.276;2023-04-19T01:57:27;102079.31;;;13.32;63.91
64739;BME280;51175;51.186;0.276;2023-04-19T01:57:57;102080.09;;;13.32;63.97
64739;BME280;51175;51.186;0.276;2023-04-19T01:58:28;102086.44;;;13.31;63.86
64739;BME280;51175;51.186;0.276;2023-04-19T01:58:58;102084.59;;;13.32;63.76
64739;BME280;51175;51.186;0.276;2023-04-19T01:59:29;102081.13;;;13.31;63.77
64739;BME280;51175;51.186;0.276;2023-04-19T02:00:00;102084.38;;;13.33;63.80
64739;BME280;51175;51.186;0.276;2023-04-19T02:00:31;102084.59;;;13.32;63.86
64739;BME280;51175;51.186;0.276;2023-04-19T02:01:01;102079.31;;;13.32;63.81
64739;BME280;51175;51.186;0.276;2023-04-19T02:01:32;102088.28;;;13.31;63.75
64739;BME280;51175;51.186;0.276;2023-04-19T02:02:05;102077.66;;;13.31;63.74
64739;BME280;51175;51.186;0.276;2023-04-19T02:02:37;102081.13;;;13.31;63.77
64739;BME280;51175;51.186;0.276;2023-04-19T02:03:07;102076.66;;;13.32;63.91
64739;BME280;51175;51.186;0.276;2023-04-19T02:03:38;102082.75;;;13.32;63.85
64739;BME280;51175;51.186;0.276;2023-04-19T02:04:09;102077.44;;;13.32;63.91
64739;BME280;51175;51.186;0.276;2023-04-19T02:04:39;102079.06;;;13.33;63.64
64739;BME280;51175;51.186;0.276;2023-04-19T02:05:10;102079.31;;;13.32;63.92
64739;BME280;51175;51.186;0.276;2023-04-19T02:05:40;102081.72;;;13.33;63.72
64739;BME280;51175;51.186;0.276;2023-04-19T02:06:11;102084.38;;;13.33;63.73
64739;BME280;51175;51.186;0.276;2023-04-19T02:06:42;102076.41;;;13.33;63.87
64739;BME280;51175;51.186;0.276;2023-04-19T02:07:13;102071.34;;;13.32;63.83
64739;BME280;51175;51.186;0.276;2023-04-19T02:07:43;102074.78;;;13.32;63.62
64739;BME280;51175;51.186;0.276;2023-04-19T02:08:13;102078.25;;;13.33;63.84
64739;BME280;51175;51.186;0.276;2023-04-19T02:08:44;102077.44;;;13.32;63.74
64739;BME280;51175;51.186;0.276;2023-04-19T02:09:14;102073.19;;;13.31;63.70
64739;BME280;51175;51.186;0.276;2023-04-19T02:09:45;102076.66;;;13.32;63.85
64739;BME280;51175;51.186;0.276;2023-04-19T02:10:15;102071.34;;;13.32;63.70
64739;BME280;51175;51.186;0.276;2023-04-19T02:10:46;102072.38;;;13.31;63.81
64739;BME280;51175;51.186;0.276;2023-04-19T02:11:16;102069.72;;;13.31;63.81
64739;BME280;51175;51.186;0.276;2023-04-19T02:11:46;102069.72;;;13.31;63.94
64739;BME280;51175;51.186;0.276;2023-04-19T02:12:17;102075.81;;;13.31;64.01
64739;BME280;51175;51.186;0.276;2023-04-19T02:12:47;102070.53;;;13.31;64.08
64739;BME280;51175;51.186;0.276;2023-04-19T02:13:18;102074.22;;;13.30;63.94
64739;BME280;51175;51.186;0.276;2023-04-19T02:13:48;102074.22;;;13.30;63.88
64739;BME280;51175;51.186;0.276;2023-04-19T02:14:19;102074.22;;;13.30;63.99
64739;BME280;51175;51.186;0.276;2023-04-19T02:14:49;102071.56;;;13.30;63.78
64739;BME280;51175;51.186;0.276;2023-04-19T02:15:20;102074.22;;;13.30;63.73
64739;BME280;51175;51.186;0.276;2023-04-19T02:15:50;102067.06;;;13.31;63.89
64739;BME280;51175;51.186;0.276;2023-04-19T02:16:20;102072.59;;;13.29;63.88
64739;BME280;51175;51.186;0.276;2023-04-19T02:16:51;102068.09;;;13.29;63.87
64739;BME280;51175;51.186;0.276;2023-04-19T02:17:22;102071.56;;;13.30;63.99
64739;BME280;51175;51.186;0.276;2023-04-19T02:17:52;102076.06;;;13.29;63.78
64739;BME280;51175;51.186;0.276;2023-04-19T02:18:22;102071.81;;;13.28;63.81
64739;BME280;51175;51.186;0.276;2023-04-19T02:18:53;102063.84;;;13.28;63.72
64739;BME280;51175;51.186;0.276;2023-04-19T02:19:23;102071.81;;;13.28;63.90
64739;BME280;51175;51.186;0.276;2023-04-19T02:19:54;102068.09;;;13.29;63.74
64739;BME280;51175;51.186;0.276;2023-04-19T02:20:24;102063.84;;;13.28;64.00
64739;BME280;51175;51.186;0.276;2023-04-19T02:20:55;102066.50;;;13.28;63.84
64739;BME280;51175;51.186;0.276;2023-04-19T02:21:25;102071.00;;;13.28;63.90
64739;BME280;51175;51.186;0.276;2023-04-19T02:21:56;102065.69;;;13.28;63.73
64739;BME280;51175;51.186;0.276;2023-04-19T02:22:27;102063.84;;;13.28;63.80
64739;BME280;51175;51.186;0.276;2023-04-19T02:22:57;102065.69;;;13.28;63.72
64739;BME280;51175;51.186;0.276;2023-04-19T02:23:27;102067.28;;;13.29;63.80
64739;BME280;51175;51.186;0.276;2023-04-19T02:23:58;102063.84;;;13.28;63.94
64739;BME280;51175;51.186;0.276;2023-04-19T02:24:28;102064.63;;;13.29;63.85
64739;BME280;51175;51.186;0.276;2023-04-19T02:24:59;102067.28;;;13.29;63.97
64739;BME280;51175;51.186;0.276;2023-04-19T02:25:30;102062.81;;;13.29;63.65
64739;BME280;51175;51.186;0.276;2023-04-19T02:26:00;102064.63;;;13.29;63.81
64739;BME280;51175;51.186;0.276;2023-04-19T02:26:32;102065.47;;;13.29;64.02
64739;BME280;51175;51.186;0.276;2023-04-19T02:27:02;102060.16;;;13.29;63.95
64739;BME280;51175;51.186;0.276;2023-04-19T02:27:33;102063.63;;;13.30;63.94
64739;BME280;51175;51.186;0.276;2023-04-19T02:28:03;102067.28;;;13.29;63.79
64739;BME280;51175;51.186;0.276;2023-04-19T02:28:34;102059.34;;;13.29;63.89
64739;BME280;51175;51.186;0.276;2023-04-19T02:29:05;102059.34;;;13.29;63.82
64739;BME280;51175;51.186;0.276;2023-04-19T02:29:36;102062.00;;;13.29;63.82
64739;BME280;51175;51.186;0.276;2023-04-19T02:30:07;102056.69;;;13.29;63.86
64739;BME280;51175;51.186;0.276;2023-04-19T02:30:37;102055.91;;;13.28;63.78
64739;BME280;51175;51.186;0.276;2023-04-19T02:31:08;102053.25;;;13.28;63.72
64739;BME280;51175;51.186;0.276;2023-04-19T02:31:38;102058.56;;;13.28;63.83
64739;BME280;51175;51.186;0.276;2023-04-19T02:32:11;102056.91;;;13.27;64.02
64739;BME280;51175;51.186;0.276;2023-04-19T02:32:42;102061.19;;;13.28;63.82
64739;BME280;51175;51.186;0.276;2023-04-19T02:33:12;102053.47;;;13.27;63.93
64739;BME280;51175;51.186;0.276;2023-04-19T02:33:42;102056.91;;;13.27;63.71
64739;BME280;51175;51.186;0.276;2023-04-19T02:34:13;102058.56;;;13.28;63.82
64739;BME280;51175;51.186;0.276;2023-04-19T02:34:43;102063.84;;;13.28;63.80
64739;BME280;51175;51.186;0.276;2023-04-19T02:35:14;102061.44;;;13.27;63.99
64739;BME280;51175;51.186;0.276;2023-04-19T02:35:44;102056.91;;;13.27;63.99
64739;BME280;51175;51.186;0.276;2023-04-19T02:36:15;102056.13;;;13.27;64.08
64739;BME280;51175;51.186;0.276;2023-04-19T02:36:45;102056.91;;;13.27;63.84
64739;BME280;51175;51.186;0.276;2023-04-19T02:37:16;102051.63;;;13.27;63.85
64739;BME280;51175;51.186;0.276;2023-04-19T02:37:47;102056.13;;;13.27;63.89
64739;BME280;51175;51.186;0.276;2023-04-19T02:38:17;102057.72;;;13.28;63.85
64739;BME280;51175;51.186;0.276;2023-04-19T02:38:48;102055.09;;;13.28;63.88
64739;BME280;51175;51.186;0.276;2023-04-19T02:39:18;102055.09;;;13.28;63.84
64739;BME280;51175;51.186;0.276;2023-04-19T02:39:48;102064.63;;;13.29;64.07
64739;BME280;51175;51.186;0.276;2023-04-19T02:40:19;102057.72;;;13.28;63.91
64739;BME280;51175;51.186;0.276;2023-04-19T02:40:51;102061.19;;;13.28;63.79